Time;durP1;ratioP1;P1;durP2;ratioP2;P2;SDS_P1;SDS_P2;PMS_P1;PMS_P2;Temp;Humidity;BMP_temperature;BMP_pressure;BME280_temperature;BME280_humidity;BME280_pressure;Samples;Min_cycle;Max_cycle;Signal;HPM_P1;HPM_P2
2022/06/15 00:00:58;;;;;;;7.13;2.33;;;13.40;99.90;;;;;;4157533;28;20041;-67
2022/06/15 00:02:59;;;;;;;4.90;2.38;;;13.30;99.90;;;;;;4156792;28;20033;-66
2022/06/15 00:05:00;;;;;;;2.90;1.97;;;13.30;99.90;;;;;;4157491;28;20055;-68
2022/06/15 00:07:02;;;;;;;4.40;2.00;;;13.30;99.90;;;;;;4156840;28;20040;-66
2022/06/15 00:09:03;;;;;;;5.93;1.90;;;13.30;99.90;;;;;;4157229;28;20037;-65
2022/06/15 00:11:07;;;;;;;3.43;1.77;;;13.20;99.90;;;;;;4157363;28;20029;-65
2022/06/15 00:13:09;;;;;;;5.93;2.60;;;13.20;99.90;;;;;;4156208;28;20565;-67
2022/06/15 00:15:10;;;;;;;3.47;2.10;;;13.20;99.90;;;;;;4157976;28;20103;-66
2022/06/15 00:17:11;;;;;;;5.00;1.87;;;13.20;99.90;;;;;;4156227;28;20045;-65
2022/06/15 00:19:13;;;;;;;2.47;2.10;;;13.10;99.90;;;;;;4157236;28;20029;-66
2022/06/15 00:21:16;;;;;;;4.70;2.60;;;13.10;99.90;;;;;;4156013;28;20033;-65
2022/06/15 00:23:18;;;;;;;5.20;2.60;;;13.10;99.90;;;;;;4157374;28;21000;-65
2022/06/15 00:25:19;;;;;;;3.93;2.47;;;12.90;99.90;;;;;;4155659;28;20050;-66
2022/06/15 00:27:20;;;;;;;4.70;2.60;;;12.90;99.90;;;;;;4156906;28;20104;-65
2022/06/15 00:29:21;;;;;;;3.80;2.03;;;12.90;99.90;;;;;;4155525;28;20045;-65
2022/06/15 00:31:22;;;;;;;5.00;2.43;;;12.90;99.90;;;;;;4156804;28;20099;-64
2022/06/15 00:33:26;;;;;;;3.80;1.83;;;12.90;99.90;;;;;;4155698;28;20038;-68
2022/06/15 00:35:27;;;;;;;4.70;2.27;;;12.90;99.90;;;;;;4157323;28;20437;-64
2022/06/15 00:37:28;;;;;;;5.47;2.20;;;12.80;99.90;;;;;;4155912;28;20052;-67
2022/06/15 00:39:30;;;;;;;5.03;2.20;;;12.80;99.90;;;;;;4156265;28;20072;-65
2022/06/15 00:41:37;;;;;;;2.87;2.03;;;12.70;99.90;;;;;;4155955;28;20029;-65
2022/06/15 00:43:41;;;;;;;3.40;2.20;;;12.70;99.90;;;;;;4156142;28;20063;-69
2022/06/15 00:45:43;;;;;;;6.27;2.27;;;12.70;99.90;;;;;;4157073;28;20033;-65
2022/06/15 00:47:46;;;;;;;4.80;2.33;;;12.60;99.90;;;;;;4156212;28;20034;-66
2022/06/15 00:49:55;;;;;;;6.57;2.63;;;12.70;99.90;;;;;;4156240;28;20045;-65
2022/06/15 00:52:01;;;;;;;1.67;1.57;;;12.70;99.90;;;;;;4155983;28;20342;-63
2022/06/15 00:54:04;;;;;;;2.57;1.93;;;12.70;99.90;;;;;;4156890;28;20041;-63
2022/06/15 00:56:06;;;;;;;3.70;2.50;;;12.70;99.90;;;;;;4155700;28;20030;-66
2022/06/15 00:58:10;;;;;;;4.97;3.33;;;12.60;99.90;;;;;;4156617;28;20054;-65
2022/06/15 01:00:12;;;;;;;4.50;2.23;;;12.60;99.90;;;;;;4155523;28;20273;-65
2022/06/15 01:02:13;;;;;;;2.30;2.10;;;12.50;99.90;;;;;;4156935;28;20711;-66
2022/06/15 01:04:15;;;;;;;4.37;2.20;;;12.50;99.90;;;;;;4155479;28;20029;-64
2022/06/15 01:06:31;;;;;;;4.00;2.33;;;12.40;99.90;;;;;;4156664;28;20017;-66
2022/06/15 01:08:57;;;;;;;4.63;1.97;;;12.30;99.90;;;;;;4155279;28;20033;-64
2022/06/15 01:11:20;;;;;;;5.83;2.40;;;12.30;99.90;;;;;;4156924;28;20057;-65
2022/06/15 01:13:45;;;;;;;3.93;2.20;;;12.20;99.90;;;;;;4155187;28;20053;-67
2022/06/15 01:16:19;;;;;;;4.83;2.50;;;12.20;99.90;;;;;;4157168;28;20032;-66
2022/06/15 01:18:48;;;;;;;4.43;2.50;;;12.10;99.90;;;;;;4154420;28;20103;-68
2022/06/15 01:21:05;;;;;;;3.10;2.40;;;12.10;99.90;;;;;;4155729;28;20076;-63
2022/06/15 01:23:06;;;;;;;4.23;2.40;;;11.90;99.90;;;;;;4156441;28;20478;-64
2022/06/15 01:25:38;;;;;;;3.00;2.37;;;11.90;99.90;;;;;;4155632;28;20115;-64
2022/06/15 01:27:56;;;;;;;2.50;2.23;;;11.90;99.90;;;;;;4156478;28;20021;-68
2022/06/15 01:30:18;;;;;;;3.00;2.23;;;11.90;99.90;;;;;;4155078;28;20041;-65
2022/06/15 01:32:35;;;;;;;6.33;2.50;;;11.90;99.90;;;;;;4156393;28;20099;-68
2022/06/15 01:34:53;;;;;;;4.17;2.40;;;11.90;99.90;;;;;;4152961;28;20034;-64
2022/06/15 01:36:55;;;;;;;8.37;2.43;;;12.00;99.90;;;;;;4155774;28;20075;-65
2022/06/15 01:39:19;;;;;;;3.03;1.97;;;12.00;99.90;;;;;;4154780;28;20425;-64
2022/06/15 01:41:29;;;;;;;3.60;1.93;;;12.00;99.90;;;;;;4153896;28;20041;-65
2022/06/15 01:43:35;;;;;;;2.22;2.03;;;12.00;99.90;;;;;;4154741;28;20030;-67
2022/06/15 01:45:38;;;;;;;2.90;1.97;;;12.00;99.90;;;;;;4156130;28;20025;-64
2022/06/15 01:47:43;;;;;;;6.53;1.90;;;12.10;99.90;;;;;;4155270;28;20591;-65
2022/06/15 01:49:54;;;;;;;5.50;2.50;;;12.20;99.90;;;;;;4156189;28;20060;-65
2022/06/15 01:51:57;;;;;;;3.83;2.40;;;12.20;99.90;;;;;;4154761;28;20037;-65
2022/06/15 01:54:08;;;;;;;3.93;1.83;;;12.20;99.90;;;;;;4155981;28;20100;-65
2022/06/15 01:56:26;;;;;;;2.50;1.77;;;12.20;99.90;;;;;;4154607;28;20021;-65
2022/06/15 01:58:32;;;;;;;5.20;1.90;;;12.20;99.90;;;;;;4156195;28;20053;-66
2022/06/15 02:00:34;;;;;;;4.17;2.20;;;12.20;99.90;;;;;;4154998;28;20041;-66
2022/06/15 02:02:55;;;;;;;3.60;1.77;;;12.20;99.90;;;;;;4157953;28;20084;-64
2022/06/15 02:05:14;;;;;;;5.33;1.87;;;12.20;99.90;;;;;;4158302;28;20034;-64
2022/06/15 02:07:53;;;;;;;4.13;2.20;;;12.10;99.90;;;;;;4158825;28;20038;-65
2022/06/15 02:10:09;;;;;;;7.60;3.00;;;12.10;99.90;;;;;;4157712;28;20025;-66
2022/06/15 02:12:14;;;;;;;4.70;1.83;;;12.20;99.90;;;;;;4159124;28;20041;-65
2022/06/15 02:14:40;;;;;;;6.50;2.17;;;12.20;99.90;;;;;;4158157;28;20037;-64
2022/06/15 02:16:55;;;;;;;5.33;2.50;;;12.20;99.90;;;;;;4158736;28;20064;-65
2022/06/15 02:18:58;;;;;;;7.10;2.20;;;12.20;99.90;;;;;;4158261;28;20037;-66
2022/06/15 02:21:05;;;;;;;5.60;2.30;;;12.20;99.90;;;;;;4158447;28;20029;-65
2022/06/15 02:23:11;;;;;;;4.43;2.27;;;12.20;99.90;;;;;;4158529;28;20371;-66
2022/06/15 02:25:15;;;;;;;3.40;2.07;;;12.20;99.90;;;;;;4158588;28;20037;-69
2022/06/15 02:27:18;;;;;;;6.10;2.10;;;12.20;99.90;;;;;;4158036;28;20025;-66
2022/06/15 02:29:22;;;;;;;5.20;2.13;;;12.20;99.90;;;;;;4158354;28;20095;-64
2022/06/15 02:31:25;;;;;;;4.40;2.27;;;12.20;99.90;;;;;;4158409;28;20042;-64
2022/06/15 02:33:33;;;;;;;8.30;1.93;;;12.20;99.90;;;;;;4158730;28;20037;-65
2022/06/15 02:35:35;;;;;;;7.10;1.80;;;12.10;99.90;;;;;;4156364;28;20623;-64
2022/06/15 02:37:36;;;;;;;5.37;2.40;;;12.10;99.90;;;;;;4158582;28;20053;-64
2022/06/15 02:39:37;;;;;;;3.43;2.40;;;12.10;99.90;;;;;;4156622;28;20041;-66
2022/06/15 02:41:38;;;;;;;5.67;2.60;;;12.10;99.90;;;;;;4157765;28;20057;-65
2022/06/15 02:43:41;;;;;;;9.00;3.23;;;12.10;99.90;;;;;;4157732;28;20017;-68
2022/06/15 02:45:43;;;;;;;5.67;2.30;;;12.20;99.90;;;;;;4159018;28;20037;-66
2022/06/15 02:47:46;;;;;;;5.33;2.00;;;12.30;99.90;;;;;;4157559;28;20091;-65
2022/06/15 02:49:51;;;;;;;5.70;2.47;;;12.40;99.90;;;;;;4158332;28;20478;-63
2022/06/15 02:52:04;;;;;;;5.10;1.87;;;12.50;99.90;;;;;;4157803;28;20400;-65
2022/06/15 02:54:11;;;;;;;3.83;2.10;;;12.60;99.90;;;;;;4158188;28;20099;-67
2022/06/15 02:56:14;;;;;;;4.83;2.10;;;12.80;99.90;;;;;;4157485;28;20103;-64
2022/06/15 02:58:24;;;;;;;5.47;2.50;;;13.00;99.90;;;;;;4156394;28;20438;-67
2022/06/15 03:00:26;;;;;;;;;;;13.10;99.90;;;;;;4157996;28;20099;-66
2022/06/15 03:02:27;;;;;;;3.10;1.93;;;13.30;99.90;;;;;;4158240;28;19913;-68
2022/06/15 03:04:29;;;;;;;2.27;1.80;;;13.50;99.90;;;;;;4158186;28;20064;-65
2022/06/15 03:06:30;;;;;;;4.23;2.00;;;13.80;99.90;;;;;;4158132;28;20453;-70
2022/06/15 03:08:31;;;;;;;4.00;1.97;;;14.00;99.90;;;;;;4157400;28;20486;-66
2022/06/15 03:10:32;;;;;;;7.23;2.00;;;14.20;99.90;;;;;;4157342;28;20033;-69
2022/06/15 03:12:33;;;;;;;5.33;1.70;;;14.40;99.90;;;;;;4157142;28;20048;-67
2022/06/15 03:14:35;;;;;;;4.13;2.00;;;14.50;99.90;;;;;;4157002;28;20445;-66
2022/06/15 03:16:38;;;;;;;4.30;1.73;;;14.70;99.90;;;;;;4158673;28;20367;-65
2022/06/15 03:18:39;;;;;;;4.20;2.13;;;14.90;99.90;;;;;;4156743;28;20029;-66
2022/06/15 03:20:40;;;;;;;4.43;2.10;;;15.10;99.90;;;;;;4158252;28;20177;-66
2022/06/15 03:22:42;;;;;;;4.43;2.10;;;15.30;99.90;;;;;;4156731;28;20445;-67
2022/06/15 03:24:43;;;;;;;4.37;2.10;;;15.60;99.90;;;;;;4158353;28;20034;-67
2022/06/15 03:26:44;;;;;;;15.87;2.37;;;15.90;99.90;;;;;;4156776;28;20021;-65
2022/06/15 03:28:45;;;;;;;4.93;2.17;;;16.00;99.90;;;;;;4158192;28;20064;-64
2022/06/15 03:30:46;;;;;;;2.93;2.00;;;16.30;99.90;;;;;;4156526;28;20030;-66
2022/06/15 03:32:47;;;;;;;6.05;2.22;;;16.60;99.90;;;;;;4158172;28;20088;-65
2022/06/15 03:34:49;;;;;;;3.20;1.98;;;16.90;99.90;;;;;;4157038;28;20053;-65
2022/06/15 03:36:50;;;;;;;8.27;2.05;;;17.20;99.90;;;;;;4157904;28;20041;-66
2022/06/15 03:38:51;;;;;;;3.22;1.73;;;17.40;99.90;;;;;;4157366;28;20029;-66
2022/06/15 03:40:52;;;;;;;5.18;2.08;;;17.70;99.90;;;;;;4156843;28;20021;-66
2022/06/15 03:42:53;;;;;;;3.30;2.40;;;17.90;99.90;;;;;;4157739;28;20030;-68
2022/06/15 03:44:54;;;;;;;4.88;2.28;;;18.20;99.90;;;;;;4156567;28;20021;-65
2022/06/15 03:46:56;;;;;;;3.92;1.88;;;18.40;99.90;;;;;;4158019;28;20883;-64
2022/06/15 03:48:57;;;;;;;5.10;2.20;;;18.60;99.90;;;;;;4156537;28;20037;-66
2022/06/15 03:50:58;;;;;;;4.18;2.03;;;18.80;99.70;;;;;;4157732;28;20425;-66
2022/06/15 03:53:00;;;;;;;3.63;2.20;;;18.80;99.40;;;;;;4155968;28;20033;-65
2022/06/15 03:55:02;;;;;;;7.90;2.00;;;19.10;99.10;;;;;;4157470;28;20037;-64
2022/06/15 03:57:04;;;;;;;6.78;2.10;;;19.20;98.60;;;;;;4155918;28;20049;-63
2022/06/15 03:59:05;;;;;;;4.82;1.90;;;19.30;98.50;;;;;;4157387;28;20060;-65
2022/06/15 04:01:06;;;;;;;2.92;1.48;;;19.30;98.10;;;;;;4156230;28;20164;-66
2022/06/15 04:03:07;;;;;;;4.65;2.20;;;19.10;97.90;;;;;;4156850;28;20055;-63
2022/06/15 04:05:19;;;;;;;3.97;1.65;;;19.00;98.10;;;;;;4156001;28;20103;-65
2022/06/15 04:09:39;;;;;;;2.83;1.57;;;18.10;98.50;;;;;;4156537;28;20033;-63
2022/06/15 04:11:59;;;;;;;7.22;1.90;;;18.00;98.80;;;;;;4156820;28;21113;-64
2022/06/15 04:14:01;;;;;;;4.75;1.50;;;18.00;98.90;;;;;;4156157;28;20087;-65
2022/06/15 04:16:06;;;;;;;3.22;1.75;;;17.90;98.80;;;;;;4156576;28;20870;-63
2022/06/15 04:18:07;;;;;;;2.72;1.52;;;17.20;99.00;;;;;;4156761;28;20102;-66
2022/06/15 04:20:32;;;;;;;2.20;1.70;;;16.70;99.60;;;;;;4156736;28;20041;-64
2022/06/15 04:22:33;;;;;;;3.25;2.00;;;16.20;99.90;;;;;;4156065;28;20091;-64
2022/06/15 04:24:39;;;;;;;4.05;1.52;;;15.80;99.90;;;;;;4155342;28;20115;-64
2022/06/15 04:26:41;;;;;;;3.50;2.10;;;15.60;99.90;;;;;;4155991;28;20106;-64
2022/06/15 04:28:44;;;;;;;4.22;1.60;;;15.60;99.90;;;;;;4156505;28;20581;-63
2022/06/15 04:30:46;;;;;;;14.40;3.13;;;15.60;99.90;;;;;;4156535;28;20551;-64
2022/06/15 04:32:48;;;;;;;10.00;3.58;;;15.50;99.90;;;;;;4155396;28;20042;-64
2022/06/15 04:34:49;;;;;;;12.30;3.65;;;15.40;99.90;;;;;;4156304;28;20556;-64
2022/06/15 04:36:50;;;;;;;8.57;3.60;;;15.50;99.90;;;;;;4155736;28;20021;-64
2022/06/15 04:38:51;;;;;;;11.00;3.88;;;15.80;99.90;;;;;;4156920;28;20026;-64
2022/06/15 04:40:53;;;;;;;13.50;3.67;;;16.10;99.90;;;;;;4155610;28;20074;-63
2022/06/15 04:42:54;;;;;;;8.15;2.67;;;16.40;99.90;;;;;;4156483;28;20022;-64
2022/06/15 04:44:55;;;;;;;3.83;2.92;;;16.60;99.90;;;;;;4153856;28;20038;-63
2022/06/15 04:46:58;;;;;;;8.68;2.20;;;16.60;99.90;;;;;;4156460;28;20157;-64
2022/06/15 04:49:00;;;;;;;5.45;1.60;;;16.90;99.90;;;;;;4155352;28;20096;-65
2022/06/15 04:51:15;;;;;;;6.35;1.77;;;17.60;99.90;;;;;;4156421;28;20119;-65
2022/06/15 04:53:16;;;;;;;4.25;1.83;;;18.30;99.60;;;;;;4155627;28;20037;-65
2022/06/15 04:55:20;;;;;;;4.72;1.88;;;19.10;98.60;;;;;;4156762;28;20091;-65
2022/06/15 04:57:21;;;;;;;6.38;1.77;;;19.90;97.70;;;;;;4153826;28;20103;-65
2022/06/15 04:59:22;;;;;;;3.78;1.80;;;20.80;96.80;;;;;;4156091;28;20034;-68
2022/06/15 05:01:23;;;;;;;5.60;1.70;;;21.40;95.80;;;;;;4155539;28;20458;-65
2022/06/15 05:03:24;;;;;;;5.65;1.67;;;21.90;95.00;;;;;;4154977;28;20474;-65
2022/06/15 05:05:26;;;;;;;4.47;2.00;;;22.50;94.20;;;;;;4155304;28;20037;-66
2022/06/15 05:07:27;;;;;;;5.53;1.92;;;23.30;93.30;;;;;;4155272;28;20030;-67
2022/06/15 05:09:28;;;;;;;2.05;1.30;;;23.50;92.10;;;;;;4155814;28;20029;-66
2022/06/15 05:11:30;;;;;;;2.90;1.52;;;23.50;91.50;;;;;;4154740;28;20505;-67
2022/06/15 05:13:31;;;;;;;4.70;1.45;;;23.90;90.90;;;;;;4155502;28;20037;-66
2022/06/15 05:15:32;;;;;;;4.43;1.58;;;24.40;90.10;;;;;;4155030;28;20021;-64
2022/06/15 05:17:33;;;;;;;4.05;1.40;;;24.90;88.30;;;;;;4154457;28;20429;-65
2022/06/15 05:19:34;;;;;;;2.05;1.42;;;24.80;87.00;;;;;;4154794;28;20061;-65
2022/06/15 05:21:40;;;;;;;4.63;1.58;;;24.80;86.30;;;;;;4156153;28;20102;-67
2022/06/15 05:23:41;;;;;;;4.47;1.42;;;25.20;85.40;;;;;;4154309;28;20555;-64
2022/06/15 05:25:43;;;;;;;4.70;1.55;;;25.20;84.30;;;;;;4155951;28;20033;-64
2022/06/15 05:27:44;;;;;;;2.97;1.20;;;25.00;82.90;;;;;;4154455;28;20437;-64
2022/06/15 05:29:45;;;;;;;4.20;1.30;;;24.70;83.10;;;;;;4155657;28;20476;-65
2022/06/15 05:31:46;;;;;;;3.92;1.38;;;24.90;82.60;;;;;;4154933;28;20034;-66
2022/06/15 05:33:53;;;;;;;5.72;1.42;;;25.10;81.80;;;;;;4154805;28;20041;-66
2022/06/15 05:36:03;;;;;;;6.22;3.15;;;25.50;81.50;;;;;;4154863;28;20029;-65
2022/06/15 05:38:04;;;;;;;3.10;1.75;;;26.30;78.60;;;;;;4155302;28;20033;-66
2022/06/15 05:40:06;;;;;;;3.17;1.45;;;26.50;78.50;;;;;;4154771;28;20425;-65
2022/06/15 05:42:09;;;;;;;3.35;1.20;;;26.80;77.60;;;;;;4153955;28;20572;-65
2022/06/15 05:46:20;;;;;;;4.95;1.20;;;27.30;75.50;;;;;;4154746;28;20103;-66
2022/06/15 05:48:21;;;;;;;4.30;1.30;;;27.60;73.00;;;;;;4155987;28;20092;-65
2022/06/15 05:50:23;;;;;;;4.07;1.50;;;27.70;74.00;;;;;;4154362;28;20045;-67
2022/06/15 05:52:24;;;;;;;3.97;1.70;;;27.70;73.00;;;;;;4155867;28;20459;-64
2022/06/15 05:54:25;;;;;;;4.15;1.75;;;;;;;;;;4153956;28;20104;-65
2022/06/15 05:56:27;;;;;;;4.65;1.27;;;;;;;;;;4155264;28;20425;-66
2022/06/15 05:58:29;;;;;;;5.13;1.50;;;;;;;;;;4154073;28;20041;-67
2022/06/15 06:00:31;;;;;;;4.03;1.52;;;;;;;;;;4155741;28;20030;-67
2022/06/15 06:02:32;;;;;;;3.08;1.67;;;;;;;;;;4154513;28;20066;-65
2022/06/15 06:04:34;;;;;;;2.03;1.25;;;;;;;;;;4155774;28;20099;-66
2022/06/15 06:06:35;;;;;;;6.07;1.10;;;;;;;;;;4154393;28;20021;-65
2022/06/15 06:08:37;;;;;;;2.85;1.20;;;;;;;;;;4155513;28;20037;-67
2022/06/15 06:10:38;;;;;;;3.17;1.33;;;;;;;;;;4154281;28;20064;-65
2022/06/15 06:12:39;;;;;;;4.60;1.60;;;;;;;;;;4154938;28;20029;-66
2022/06/15 06:14:42;;;;;;;5.25;1.58;;;;;;;;;;4154897;28;20441;-67
2022/06/15 06:16:43;;;;;;;3.25;1.60;;;;;;;;;;4155176;28;20021;-65
2022/06/15 06:18:45;;;;;;;2.50;1.20;;;;;;;;;;4155493;28;20026;-66
2022/06/15 06:20:46;;;;;;;3.95;1.15;;;;;;;;;;4154510;28;20033;-68
2022/06/15 06:22:48;;;;;;;1.55;1.08;;;;;;;;;;4155119;28;20806;-65
2022/06/15 06:24:49;;;;;;;3.75;1.30;;;;;;;;;;4154302;28;20034;-64
2022/06/15 06:26:57;;;;;;;3.85;1.35;;;;;;;;;;4155219;28;20509;-68
2022/06/15 06:28:59;;;;;;;3.85;1.08;;;;;;;;;;4152701;28;20076;-65
2022/06/15 06:31:02;;;;;;;3.88;1.30;;;;;;;;;;4155441;28;20034;-66
2022/06/15 06:33:03;;;;;;;2.60;1.20;;;;;;;;;;4154256;28;20083;-65
2022/06/15 06:35:05;;;;;;;3.60;1.08;;;27.80;72.70;;;;;;4155455;28;20053;-70
2022/06/15 06:37:07;;;;;;;3.55;1.02;;;27.00;68.60;;;;;;4154026;28;20080;-65
2022/06/15 06:39:29;;;;;;;5.75;1.33;;;26.60;69.10;;;;;;4155405;28;20486;-66
2022/06/15 06:41:31;;;;;;;2.05;1.20;;;26.70;68.10;;;;;;4154164;28;20037;-67
2022/06/15 06:43:32;;;;;;;5.97;1.90;;;26.80;69.70;;;;;;4155311;28;20064;-65
2022/06/15 06:45:33;;;;;;;7.10;1.67;;;26.80;69.10;;;;;;4154357;28;20140;-68
2022/06/15 06:47:35;;;;;;;2.90;0.80;;;27.00;68.80;;;;;;4155254;28;20029;-66
2022/06/15 06:49:36;;;;;;;2.00;1.38;;;27.00;68.80;;;;;;4158179;28;20033;-65
2022/06/15 06:51:39;;;;;;;1.33;0.90;;;27.10;68.60;;;;;;4158536;28;20436;-69
2022/06/15 06:53:40;;;;;;;7.63;1.20;;;26.90;68.50;;;;;;4157690;28;20021;-70
2022/06/15 06:55:42;;;;;;;1.67;0.98;;;26.50;68.90;;;;;;4157036;28;20794;-67
2022/06/15 06:57:44;;;;;;;2.55;1.23;;;26.60;68.70;;;;;;4157843;28;20053;-66
2022/06/15 06:59:46;;;;;;;3.70;1.42;;;26.40;68.60;;;;;;4157071;28;20057;-67
2022/06/15 07:01:48;;;;;;;5.20;1.20;;;26.20;68.80;;;;;;4158429;28;20060;-66
2022/06/15 07:03:50;;;;;;;2.42;1.25;;;26.30;68.80;;;;;;4157183;28;20017;-65
2022/06/15 07:05:51;;;;;;;3.38;1.52;;;26.00;69.30;;;;;;4157883;28;20037;-65
2022/06/15 07:07:53;;;;;;;8.32;1.50;;;26.10;69.70;;;;;;4156608;28;20470;-66
2022/06/15 07:09:54;;;;;;;2.55;1.20;;;26.40;69.20;;;;;;4157873;28;20041;-66
2022/06/15 07:11:55;;;;;;;4.05;1.60;;;26.70;68.60;;;;;;4156280;28;20484;-67
2022/06/15 07:13:56;;;;;;;8.13;1.20;;;26.40;68.30;;;;;;4157620;28;20433;-66
2022/06/15 07:15:57;;;;;;;3.22;1.30;;;25.70;69.30;;;;;;4156560;28;20587;-66
2022/06/15 07:18:00;;;;;;;3.97;1.60;;;24.60;70.40;;;;;;4157440;28;20084;-68
2022/06/15 07:20:01;;;;;;;4.40;1.67;;;24.30;71.20;;;;;;4157870;28;20060;-65
2022/06/15 07:22:02;;;;;;;5.15;3.17;;;24.50;71.30;;;;;;4157460;28;20029;-66
2022/06/15 07:24:04;;;;;;;4.28;1.50;;;24.80;71.50;;;;;;4156793;28;20041;-64
2022/06/15 07:26:10;;;;;;;6.57;1.40;;;24.50;70.90;;;;;;4157003;28;20107;-66
2022/06/15 07:28:13;;;;;;;6.70;1.13;;;24.20;71.50;;;;;;4157000;28;20881;-67
2022/06/15 07:30:18;;;;;;;4.80;1.33;;;24.30;72.20;;;;;;4156551;28;20080;-66
2022/06/15 07:32:19;;;;;;;3.25;1.25;;;24.30;71.50;;;;;;4157061;28;20095;-65
2022/06/15 07:34:21;;;;;;;6.38;1.60;;;24.10;71.60;;;;;;4156529;28;20042;-68
2022/06/15 07:36:23;;;;;;;2.58;0.95;;;24.20;71.60;;;;;;4157576;28;20053;-67
2022/06/15 07:38:26;;;;;;;9.40;2.45;;;24.50;71.50;;;;;;4156750;28;20095;-66
2022/06/15 07:40:27;;;;;;;4.47;1.50;;;24.80;71.30;;;;;;4156851;28;20075;-67
2022/06/15 07:42:29;;;;;;;6.20;1.40;;;25.20;71.20;;;;;;4155969;28;20030;-65
2022/06/15 07:44:33;;;;;;;5.50;1.50;;;25.50;70.90;;;;;;4157473;28;20764;-66
2022/06/15 07:46:35;;;;;;;3.28;1.02;;;25.80;70.30;;;;;;4156050;28;20029;-66
2022/06/15 07:50:56;;;;;;;2.15;1.40;;;26.20;69.50;;;;;;4156587;28;20537;-66
2022/06/15 07:52:57;;;;;;;5.68;1.60;;;26.20;69.20;;;;;;4157652;28;20474;-64
2022/06/15 07:54:59;;;;;;;6.32;3.08;;;26.10;69.40;;;;;;4155676;28;20096;-65
2022/06/15 07:57:01;;;;;;;4.43;2.03;;;26.20;69.20;;;;;;4157010;28;20057;-68
2022/06/15 07:59:02;;;;;;;3.15;1.10;;;26.00;69.40;;;;;;4154924;28;20041;-66
2022/06/15 08:01:04;;;;;;;2.08;0.90;;;25.90;69.10;;;;;;4156847;28;20029;-69
2022/06/15 08:03:06;;;;;;;1.52;1.20;;;25.60;69.10;;;;;;4156317;28;20099;-67
2022/06/15 08:05:08;;;;;;;1.50;0.73;;;25.20;69.50;;;;;;4156555;28;20095;-67
2022/06/15 08:07:12;;;;;;;2.08;1.02;;;25.30;69.60;;;;;;4155299;28;20076;-65
2022/06/15 08:09:13;;;;;;;2.33;0.88;;;25.50;68.80;;;;;;4156477;28;20025;-64
2022/06/15 08:11:15;;;;;;;2.50;0.90;;;25.10;69.10;;;;;;4156525;28;20432;-66
2022/06/15 08:13:17;;;;;;;3.35;1.00;;;24.70;69.40;;;;;;4155905;28;20758;-68
2022/06/15 08:15:19;;;;;;;4.10;1.40;;;24.40;70.00;;;;;;4156895;28;20037;-64
2022/06/15 08:17:23;;;;;;;1.20;1.08;;;24.20;70.30;;;;;;4154512;28;20138;-68
2022/06/15 08:19:24;;;;;;;5.85;1.50;;;24.00;70.60;;;;;;4156874;28;20485;-65
2022/06/15 08:21:30;;;;;;;2.80;1.67;;;24.10;71.00;;;;;;4155499;28;20037;-66
2022/06/15 08:23:35;;;;;;;3.28;1.27;;;24.40;70.80;;;;;;4156467;28;20944;-66
2022/06/15 08:25:41;;;;;;;4.72;1.50;;;24.40;70.80;;;;;;4155396;28;20021;-64
2022/06/15 08:27:43;;;;;;;3.85;0.93;;;24.60;70.40;;;;;;4155136;28;20822;-67
2022/06/15 08:29:46;;;;;;;6.20;1.45;;;24.50;70.40;;;;;;4154954;28;20094;-64
2022/06/15 08:31:48;;;;;;;2.70;0.90;;;24.50;70.30;;;;;;4156986;28;20029;-67
2022/06/15 08:33:49;;;;;;;6.22;0.98;;;24.40;70.30;;;;;;4154452;28;20107;-65
2022/06/15 08:35:51;;;;;;;3.30;1.42;;;24.40;70.00;;;;;;4156533;28;20712;-67
2022/06/15 08:37:52;;;;;;;3.78;1.02;;;24.40;70.30;;;;;;4155883;28;20014;-65
2022/06/15 08:39:54;;;;;;;2.88;1.38;;;24.60;70.40;;;;;;4156536;28;20445;-65
2022/06/15 08:42:41;;;;;;;2.65;1.30;;;24.40;70.40;;;;;;4155923;28;20111;-66
2022/06/15 08:44:54;;;;;;;1.77;0.88;;;23.80;70.00;;;;;;4153059;28;20079;-66
2022/06/15 08:47:18;;;;;;;3.75;1.02;;;23.50;71.20;;;;;;4155566;28;20091;-66
2022/06/15 08:49:58;;;;;;;1.40;0.90;;;23.80;71.50;;;;;;4156380;28;20021;-65
2022/06/15 08:52:04;;;;;;;9.00;1.30;;;23.60;71.40;;;;;;4155681;28;20091;-65
2022/06/15 08:54:23;;;;;;;2.58;1.30;;;23.70;71.60;;;;;;4155949;28;20098;-66
2022/06/15 08:56:36;;;;;;;2.75;0.98;;;23.80;70.90;;;;;;4155005;28;20101;-65
2022/06/15 08:59:01;;;;;;;6.82;1.60;;;23.60;71.30;;;;;;4155975;28;20551;-65
2022/06/15 09:01:13;;;;;;;3.08;1.13;;;23.60;70.20;;;;;;4155833;28;20057;-66
2022/06/15 09:03:35;;;;;;;3.40;1.13;;;23.30;70.60;;;;;;4156099;28;20025;-67
2022/06/15 09:06:09;;;;;;;4.63;1.42;;;23.30;70.60;;;;;;4155633;28;20087;-68
2022/06/15 09:08:39;;;;;;;3.63;1.20;;;23.10;70.80;;;;;;4131270;28;20100;-66
2022/06/15 09:10:50;;;;;;;1.40;0.90;;;23.00;71.70;;;;;;4136787;28;20080;-67
2022/06/15 09:13:30;;;;;;;2.22;1.20;;;23.20;71.10;;;;;;4155120;28;20920;-65
2022/06/15 09:16:00;;;;;;;3.85;1.40;;;23.20;71.20;;;;;;4147325;28;20595;-69
2022/06/15 09:18:12;;;;;;;3.90;0.70;;;23.20;70.70;;;;;;4152093;28;20435;-65
2022/06/15 09:20:29;;;;;;;3.08;1.00;;;23.40;71.20;;;;;;4156133;28;20123;-67
2022/06/15 09:22:39;;;;;;;4.70;1.15;;;23.60;70.50;;;;;;4154826;28;20064;-65
2022/06/15 09:24:48;;;;;;;2.75;0.93;;;23.40;70.60;;;;;;4155168;28;20045;-65
2022/06/15 09:26:54;;;;;;;2.72;0.93;;;23.10;70.90;;;;;;4154914;28;20037;-66
2022/06/15 09:29:08;;;;;;;5.72;1.23;;;23.10;70.80;;;;;;4155770;28;20528;-67
2022/06/15 09:31:20;;;;;;;2.88;1.25;;;23.20;70.60;;;;;;4154877;28;20037;-64
2022/06/15 09:33:32;;;;;;;1.88;1.05;;;23.40;70.10;;;;;;4155738;28;20053;-65
2022/06/15 09:35:43;;;;;;;3.08;1.00;;;23.20;69.50;;;;;;4155295;28;20037;-67
2022/06/15 09:37:54;;;;;;;3.75;0.93;;;23.20;70.20;;;;;;4155204;28;20498;-67
2022/06/15 09:39:55;;;;;;;4.32;1.02;;;23.40;69.60;;;;;;4154916;28;20033;-67
2022/06/15 09:42:20;;;;;;;2.92;1.00;;;23.40;69.80;;;;;;4154928;28;20493;-66
2022/06/15 09:44:22;;;;;;;3.00;1.75;;;23.30;68.30;;;;;;4154766;28;20119;-66
2022/06/15 09:46:29;;;;;;;1.60;0.80;;;23.10;70.00;;;;;;4155190;28;20099;-65
2022/06/15 09:48:36;;;;;;;5.47;1.00;;;22.90;69.00;;;;;;4154707;28;20022;-66
2022/06/15 09:50:48;;;;;;;2.30;1.42;;;22.90;69.60;;;;;;4155567;28;20029;-67
2022/06/15 09:53:04;;;;;;;2.45;0.95;;;23.20;70.00;;;;;;4154709;28;20100;-68
2022/06/15 09:55:19;;;;;;;2.58;1.20;;;23.50;69.90;;;;;;4155067;28;20037;-66
2022/06/15 09:57:21;;;;;;;3.60;0.82;;;23.70;69.70;;;;;;4154835;28;20049;-68
2022/06/15 09:59:25;;;;;;;6.55;1.20;;;24.00;69.50;;;;;;4155378;28;20849;-66
2022/06/15 10:01:31;;;;;;;3.58;1.10;;;24.30;69.50;;;;;;4155171;28;20041;-66
2022/06/15 10:03:36;;;;;;;1.98;0.88;;;24.70;68.90;;;;;;4154946;28;20029;-68
2022/06/15 10:05:43;;;;;;;3.38;0.77;;;24.80;68.50;;;;;;4154912;28;20033;-65
2022/06/15 10:07:44;;;;;;;5.75;1.58;;;25.00;68.10;;;;;;4155171;28;20013;-66
2022/06/15 10:09:54;;;;;;;15.45;2.85;;;25.00;67.90;;;;;;4154040;28;20068;-66
2022/06/15 10:14:31;;;;;;;7.82;1.08;;;25.00;68.20;;;;;;4154607;28;20123;-65
2022/06/15 10:16:33;;;;;;;3.75;0.70;;;25.00;67.20;;;;;;4154874;28;20112;-67
2022/06/15 10:18:43;;;;;;;4.60;1.10;;;24.90;67.20;;;;;;4152863;28;20092;-67
2022/06/15 10:21:05;;;;;;;2.78;1.00;;;24.90;66.80;;;;;;4155397;28;20344;-67
2022/06/15 10:23:21;;;;;;;3.75;0.90;;;25.00;65.50;;;;;;4155672;28;20029;-64
2022/06/15 10:25:23;;;;;;;5.22;1.02;;;25.10;66.20;;;;;;4157990;28;20029;-63
2022/06/15 10:27:25;;;;;;;7.13;0.90;;;24.90;66.40;;;;;;4157585;28;20025;-66
2022/06/15 10:29:30;;;;;;;12.45;2.55;;;24.50;67.20;;;;;;4158232;28;20386;-66
2022/06/15 10:31:34;;;;;;;11.05;2.97;;;24.40;67.90;;;;;;4157194;28;20113;-67
2022/06/15 10:33:40;;;;;;;6.47;1.40;;;24.30;68.20;;;;;;4158254;28;20056;-65
2022/06/15 10:35:56;;;;;;;4.43;1.15;;;24.50;67.40;;;;;;4157388;28;20080;-65
2022/06/15 10:38:01;;;;;;;3.13;1.40;;;24.50;67.50;;;;;;4158052;28;20591;-66
2022/06/15 10:40:37;;;;;;;3.55;0.73;;;24.40;67.90;;;;;;4157309;28;20705;-65
2022/06/15 10:42:41;;;;;;;3.15;1.27;;;24.20;69.00;;;;;;4157842;28;20500;-65
2022/06/15 10:44:56;;;;;;;14.40;2.55;;;24.00;69.00;;;;;;4157050;28;20154;-64
2022/06/15 10:47:02;;;;;;;29.02;5.95;;;23.80;68.70;;;;;;4157320;28;20033;-65
2022/06/15 10:49:07;;;;;;;25.00;4.07;;;23.60;69.40;;;;;;4156979;28;20464;-65
2022/06/15 10:51:13;;;;;;;16.23;2.35;;;23.80;69.70;;;;;;4158022;28;20050;-64
2022/06/15 10:53:34;;;;;;;3.90;1.33;;;23.90;68.70;;;;;;4157305;28;20033;-66
2022/06/15 11:02:45;;;;;;;2.70;1.38;;;24.50;67.50;;;;;;4158573;28;20127;-68
2022/06/15 11:04:46;;;;;;;2.63;1.77;;;24.40;67.50;;;;;;4157343;28;20444;-67
2022/06/15 11:07:11;;;;;;;5.78;1.10;;;24.60;67.70;;;;;;4157188;28;20083;-68
2022/06/15 11:09:26;;;;;;;2.42;0.90;;;24.70;67.70;;;;;;4156396;28;20029;-66
2022/06/15 11:11:27;;;;;;;3.17;1.30;;;24.50;67.40;;;;;;4157449;28;20059;-66
2022/06/15 11:13:37;;;;;;;13.27;1.80;;;24.50;67.80;;;;;;4156872;28;20630;-68
2022/06/15 11:18:18;;;;;;;3.00;1.15;;;24.70;67.40;;;;;;4156130;28;20095;-66
2022/06/15 11:20:41;;;;;;;2.40;1.20;;;24.80;67.50;;;;;;4157637;28;20496;-67